Snow/Ice From: 17-12-2017 10:00 Until: 18-12-2017 06:00 warning for: Snow/Ice Level: Yellow info button

Although rather usual in this region, locally or potentially dangerous phenomena are expected. (such as local winds, summer thunderstorms, rising streams or high waves) Be aware and pay attention to the latest weather updates, especially if you carry out activities exposed to weather or close to a stream or shoreline. 


Meteo18 Weather Cam more information Meteo18 Weather Cam


Thunder radar more information blitzortung!


warning for Snow/Ice more information rain snow radar


Visit our other weather sites:

Template documentation
and downloads

And another site



Weather Underground History page Text

Daily Summary for February 8, 2016 Units:  Metric    English   Both
« Previous Day
Next Day »
Daily Weekly Monthly Yearly Custom
  High: Low: Average:
Temperature: 12.0 °C 6.6 °C 9 °C
Dew Point: 9.5 °C 4.9 °C 7.4 °C
Humidity: 96 % 79 % 90 %
Wind Speed: 24.1 km/h 0.0 km/h 10.7 km/h
Wind Gust: 37.0 km/h - -
Wind:- - SW
Pressure: 1010.7 hPa 1003.6 hPa -
Precipitation: 7.1 mm    
Historical Graphs
 
 
Tabular Data for February 8, 2016
Time Temperature Dew Point Pressure Wind Wind Speed Wind Gust Humidity Rainfall Rate (Hourly)
00:02 6.6 °C 4.9 °C 1010.0 hPa SSW 3.2 km/h 11.3 km/h 89 % 0.0 mm
00:07 6.6 °C 4.9 °C 1009.7 hPa SW 6.4 km/h 11.3 km/h 89 % 0.0 mm
00:12 6.7 °C 5.0 °C 1009.7 hPa WSW 8.0 km/h 11.3 km/h 89 % 0.0 mm
00:17 6.7 °C 5.0 °C 1009.4 hPa SW 9.7 km/h 14.5 km/h 89 % 0.0 mm
00:22 6.7 °C 5.0 °C 1009.4 hPa Calm   14.5 km/h 89 % 0.0 mm
00:27 6.7 °C 5.0 °C 1009.4 hPa SW 6.4 km/h 14.5 km/h 89 % 0.0 mm
00:32 6.8 °C 5.0 °C 1009.4 hPa WNW 4.8 km/h 14.5 km/h 88 % 0.0 mm
00:42 6.8 °C 5.0 °C 1009.4 hPa SW 6.4 km/h 14.5 km/h 88 % 0.0 mm
00:47 6.8 °C 5.0 °C 1009.4 hPa WSW 6.4 km/h 11.3 km/h 88 % 0.0 mm
00:52 6.9 °C 5.1 °C 1009.0 hPa West 6.4 km/h 14.5 km/h 88 % 0.0 mm
00:57 7.0 °C 5.0 °C 1009.0 hPa WSW 6.4 km/h 14.5 km/h 87 % 0.0 mm
01:07 7.2 °C 5.2 °C 1009.0 hPa SW 8.0 km/h 16.1 km/h 87 % 0.0 mm
01:12 7.2 °C 5.2 °C 1008.7 hPa SW 3.2 km/h 16.1 km/h 87 % 0.0 mm
01:17 7.3 °C 5.3 °C 1008.7 hPa West 8.0 km/h 14.5 km/h 87 % 0.0 mm
01:22 7.3 °C 5.3 °C 1008.7 hPa SW 8.0 km/h 14.5 km/h 87 % 0.0 mm
01:27 7.3 °C 5.4 °C 1008.7 hPa West 4.8 km/h 14.5 km/h 88 % 0.0 mm
01:32 7.4 °C 5.5 °C 1008.4 hPa WNW 3.2 km/h 17.7 km/h 88 % 0.0 mm
01:37 7.4 °C 5.5 °C 1008.4 hPa SW 8.0 km/h 17.7 km/h 88 % 0.0 mm
01:44 7.5 °C 5.6 °C 1008.4 hPa SSW 4.8 km/h 17.7 km/h 88 % 0.0 mm
01:52 7.7 °C 5.8 °C 1008.4 hPa SW 4.8 km/h 16.1 km/h 88 % 0.0 mm
01:57 7.8 °C 5.9 °C 1008.0 hPa NE 1.6 km/h 16.1 km/h 88 % 0.0 mm
02:02 7.8 °C 5.9 °C 1008.0 hPa SSW 8.0 km/h 16.1 km/h 88 % 0.0 mm
02:07 7.9 °C 6.0 °C 1008.0 hPa SW 9.7 km/h 17.7 km/h 88 % 0.0 mm
02:12 8.0 °C 6.1 °C 1007.7 hPa SW 19.3 km/h 19.3 km/h 88 % 0.0 mm
02:19 8.1 °C 6.4 °C 1007.3 hPa WSW 16.1 km/h 22.5 km/h 89 % 0.0 mm
02:27 8.1 °C 6.6 °C 1007.3 hPa SW 11.3 km/h 27.4 km/h 90 % 0.0 mm
02:32 8.0 °C 6.6 °C 1007.3 hPa WSW 11.3 km/h 22.5 km/h 91 % 0.0 mm
02:37 8.0 °C 6.6 °C 1007.3 hPa SW 11.3 km/h 20.9 km/h 91 % 0.0 mm
02:42 7.9 °C 6.5 °C 1007.0 hPa SSE 8.0 km/h 20.9 km/h 91 % 0.0 mm
02:47 8.0 °C 6.6 °C 1007.0 hPa SW 11.3 km/h 17.7 km/h 91 % 0.0 mm
02:52 8.1 °C 6.9 °C 1007.0 hPa SW 14.5 km/h 17.7 km/h 92 % 0.0 mm
02:57 8.1 °C 6.9 °C 1007.0 hPa SW 12.9 km/h 19.3 km/h 92 % 0.0 mm
03:02 8.1 °C 6.9 °C 1006.7 hPa WSW 12.9 km/h 20.9 km/h 92 % 0.0 mm
03:07 8.1 °C 6.9 °C 1006.7 hPa SW 8.0 km/h 20.9 km/h 92 % 0.0 mm
03:12 8.2 °C 7.0 °C 1006.7 hPa WSW 12.9 km/h 24.1 km/h 92 % 0.0 mm
03:17 8.2 °C 7.0 °C 1006.7 hPa SW 12.9 km/h 24.1 km/h 92 % 0.0 mm
03:22 8.2 °C 7.1 °C 1006.7 hPa WSW 11.3 km/h 24.1 km/h 93 % 0.0 mm
03:32 8.2 °C 7.1 °C 1006.7 hPa West 4.8 km/h 25.7 km/h 93 % 0.0 mm
03:37 8.2 °C 7.3 °C 1006.7 hPa SW 6.4 km/h 24.1 km/h 94 % 0.0 mm
03:42 8.1 °C 7.2 °C 1006.7 hPa SW 16.1 km/h 24.1 km/h 94 % 0.0 mm
03:47 8.1 °C 7.3 °C 1006.3 hPa East 9.7 km/h 24.1 km/h 95 % 0.0 mm
03:52 8.1 °C 7.3 °C 1006.3 hPa SW 16.1 km/h 20.9 km/h 95 % 0.0 mm
03:57 8.1 °C 7.5 °C 1006.3 hPa WSW 9.7 km/h 20.9 km/h 96 % 0.0 mm
04:02 8.1 °C 7.5 °C 1006.0 hPa West 6.4 km/h 20.9 km/h 96 % 0.0 mm
04:07 8.1 °C 7.5 °C 1006.0 hPa WSW 8.0 km/h 20.9 km/h 96 % 0.0 mm
04:12 8.1 °C 7.5 °C 1006.0 hPa SW 14.5 km/h 20.9 km/h 96 % 0.3 mm
04:17 8.1 °C 7.5 °C 1006.0 hPa SW 11.3 km/h 20.9 km/h 96 % 0.3 mm
04:22 8.1 °C 7.5 °C 1005.6 hPa WSW 9.7 km/h 20.9 km/h 96 % 0.3 mm
04:27 8.1 °C 7.5 °C 1005.6 hPa WSW 11.3 km/h 20.9 km/h 96 % 0.3 mm
04:37 8.1 °C 7.5 °C 1005.3 hPa WSW 16.1 km/h 20.9 km/h 96 % 0.3 mm
04:42 8.2 °C 7.6 °C 1005.3 hPa SW 9.7 km/h 25.7 km/h 96 % 0.3 mm
04:47 8.2 °C 7.6 °C 1005.3 hPa SSW 12.9 km/h 25.7 km/h 96 % 0.3 mm
04:52 8.2 °C 7.6 °C 1005.3 hPa WSW 11.3 km/h 25.7 km/h 96 % 0.3 mm
04:57 8.2 °C 7.6 °C 1005.0 hPa SSW 19.3 km/h 22.5 km/h 96 % 0.3 mm
05:02 8.3 °C 7.7 °C 1005.0 hPa SW 22.5 km/h 22.5 km/h 96 % 0.3 mm
05:07 8.3 °C 7.7 °C 1005.0 hPa SW 17.7 km/h 22.5 km/h 96 % 0.3 mm
05:17 8.4 °C 7.8 °C 1005.0 hPa SW 17.7 km/h 30.6 km/h 96 % 0.3 mm
05:22 8.4 °C 7.8 °C 1005.0 hPa SW 14.5 km/h 29.0 km/h 96 % 0.3 mm
05:27 8.4 °C 7.8 °C 1005.0 hPa WSW 12.9 km/h 29.0 km/h 96 % 0.3 mm
05:32 8.4 °C 7.8 °C 1005.0 hPa South 6.4 km/h 24.1 km/h 96 % 0.3 mm
05:37 8.4 °C 7.8 °C 1005.0 hPa SW 16.1 km/h 24.1 km/h 96 % 0.3 mm
05:42 8.4 °C 7.8 °C 1004.6 hPa West 14.5 km/h 24.1 km/h 96 % 0.3 mm
05:47 8.5 °C 7.9 °C 1004.6 hPa WSW 14.5 km/h 24.1 km/h 96 % 0.3 mm
05:52 8.5 °C 7.9 °C 1004.6 hPa WSW 14.5 km/h 24.1 km/h 96 % 0.3 mm
05:57 8.6 °C 8.0 °C 1004.6 hPa SSW 9.7 km/h 24.1 km/h 96 % 0.3 mm
06:02 8.6 °C 8.0 °C 1004.3 hPa SSE 11.3 km/h 24.1 km/h 96 % 0.3 mm
06:07 8.6 °C 8.0 °C 1004.6 hPa SW 12.9 km/h 24.1 km/h 96 % 0.0 mm
06:12 8.7 °C 8.1 °C 1004.6 hPa SW 6.4 km/h 25.7 km/h 96 % 0.0 mm
06:17 8.7 °C 8.1 °C 1004.6 hPa SW 16.1 km/h 25.7 km/h 96 % 0.0 mm
06:22 8.8 °C 8.0 °C 1004.3 hPa WNW 11.3 km/h 25.7 km/h 95 % 0.0 mm
06:27 8.9 °C 8.1 °C 1004.3 hPa SW 14.5 km/h 20.9 km/h 95 % 0.0 mm
06:32 8.9 °C 8.1 °C 1004.3 hPa SSW 20.9 km/h 24.1 km/h 95 % 0.0 mm
06:37 9.1 °C 8.3 °C 1004.3 hPa SW 12.9 km/h 25.7 km/h 95 % 0.0 mm
06:42 9.1 °C 8.3 °C 1003.9 hPa SW 17.7 km/h 25.7 km/h 95 % 0.0 mm
06:52 9.2 °C 8.4 °C 1003.9 hPa SW 20.9 km/h 33.8 km/h 95 % 0.0 mm
06:57 9.1 °C 8.3 °C 1003.9 hPa WSW 9.7 km/h 25.7 km/h 95 % 0.0 mm
07:02 8.9 °C 8.1 °C 1003.9 hPa SW 14.5 km/h 25.7 km/h 95 % 0.0 mm
07:12 8.9 °C 8.1 °C 1003.9 hPa SSE 19.3 km/h 24.1 km/h 95 % 0.0 mm
07:17 8.9 °C 8.0 °C 1003.9 hPa SW 16.1 km/h 30.6 km/h 94 % 0.3 mm
07:22 8.9 °C 8.1 °C 1003.9 hPa SW 11.3 km/h 30.6 km/h 95 % 0.3 mm
07:27 8.9 °C 8.1 °C 1003.9 hPa WSW 9.7 km/h 30.6 km/h 95 % 0.3 mm
07:32 9.1 °C 8.3 °C 1004.3 hPa WSW 19.3 km/h 29.0 km/h 95 % 0.3 mm
07:37 9.3 °C 8.4 °C 1004.3 hPa SSW 16.1 km/h 30.6 km/h 94 % 0.3 mm
07:42 9.4 °C 8.5 °C 1004.6 hPa SSW 16.1 km/h 32.2 km/h 94 % 0.3 mm
07:47 9.5 °C 8.6 °C 1004.6 hPa WSW 12.9 km/h 32.2 km/h 94 % 0.3 mm
07:52 9.6 °C 8.7 °C 1004.6 hPa SW 12.9 km/h 25.7 km/h 94 % 0.3 mm
07:57 9.5 °C 8.6 °C 1004.3 hPa SW 19.3 km/h 25.7 km/h 94 % 0.3 mm
08:02 9.4 °C 8.5 °C 1004.6 hPa WSW 22.5 km/h 25.7 km/h 94 % 0.3 mm
08:12 9.4 °C 8.5 °C 1004.6 hPa SW 16.1 km/h 27.4 km/h 94 % 0.3 mm
08:17 9.4 °C 8.5 °C 1004.3 hPa South 11.3 km/h 29.0 km/h 94 % 0.0 mm
08:22 9.4 °C 8.5 °C 1004.3 hPa WSW 12.9 km/h 29.0 km/h 94 % 0.0 mm
08:27 9.4 °C 8.5 °C 1004.3 hPa WSW 11.3 km/h 29.0 km/h 94 % 0.0 mm
08:32 9.4 °C 8.3 °C 1004.3 hPa WSW 17.7 km/h 27.4 km/h 93 % 0.0 mm
08:37 9.4 °C 8.3 °C 1004.3 hPa SW 24.1 km/h 27.4 km/h 93 % 0.0 mm
08:42 9.4 °C 8.3 °C 1004.3 hPa SW 16.1 km/h 27.4 km/h 93 % 0.0 mm
08:47 9.4 °C 8.5 °C 1004.3 hPa SW 19.3 km/h 27.4 km/h 94 % 0.0 mm
08:52 9.4 °C 8.3 °C 1004.6 hPa WSW 19.3 km/h 29.0 km/h 93 % 0.0 mm
09:07 9.6 °C 8.5 °C 1004.6 hPa SSW 12.9 km/h 30.6 km/h 93 % 0.0 mm
09:12 9.7 °C 8.6 °C 1004.6 hPa SW 12.9 km/h 27.4 km/h 93 % 0.0 mm
09:17 9.8 °C 8.7 °C 1004.3 hPa WSW 8.0 km/h 27.4 km/h 93 % 0.0 mm
09:27 9.8 °C 8.7 °C 1004.3 hPa SW 19.3 km/h 24.1 km/h 93 % 0.0 mm
09:32 9.7 °C 8.6 °C 1003.9 hPa WSW 8.0 km/h 24.1 km/h 93 % 0.0 mm
09:42 9.7 °C 8.8 °C 1003.9 hPa SW 11.3 km/h 24.1 km/h 94 % 0.5 mm
09:47 9.7 °C 8.8 °C 1003.9 hPa SSW 14.5 km/h 24.1 km/h 94 % 0.5 mm
09:52 9.8 °C 8.9 °C 1003.9 hPa WSW 11.3 km/h 22.5 km/h 94 % 0.5 mm
09:57 9.8 °C 8.9 °C 1003.6 hPa SW 9.7 km/h 27.4 km/h 94 % 0.5 mm
10:02 9.8 °C 8.9 °C 1003.6 hPa ESE 9.7 km/h 27.4 km/h 94 % 0.5 mm
10:07 9.9 °C 9.0 °C 1003.6 hPa SW 22.5 km/h 29.0 km/h 94 % 0.5 mm
10:12 10.0 °C 9.1 °C 1003.6 hPa SW 11.3 km/h 29.0 km/h 94 % 0.5 mm
10:22 10.0 °C 9.1 °C 1003.9 hPa WSW 12.9 km/h 32.2 km/h 94 % 1.0 mm
10:27 9.9 °C 9.0 °C 1004.3 hPa West 9.7 km/h 30.6 km/h 94 % 1.0 mm
10:32 9.8 °C 9.0 °C 1004.6 hPa SW 17.7 km/h 30.6 km/h 95 % 1.5 mm
10:37 9.8 °C 9.0 °C 1005.0 hPa SW 22.5 km/h 33.8 km/h 95 % 1.5 mm
10:42 10.0 °C 8.8 °C 1004.6 hPa SW 24.1 km/h 33.8 km/h 92 % 1.8 mm
10:47 10.0 °C 8.9 °C 1004.6 hPa WSW 22.5 km/h 33.8 km/h 93 % 2.0 mm
10:52 10.2 °C 8.8 °C 1005.0 hPa SW 14.5 km/h 32.2 km/h 91 % 2.0 mm
10:57 10.2 °C 9.0 °C 1004.6 hPa WSW 16.1 km/h 30.6 km/h 92 % 1.8 mm
11:02 10.1 °C 9.0 °C 1004.6 hPa WSW 11.3 km/h 27.4 km/h 93 % 2.0 mm
11:07 10.2 °C 9.0 °C 1005.0 hPa WSW 11.3 km/h 24.1 km/h 92 % 2.0 mm
11:12 10.3 °C 8.9 °C 1004.6 hPa SW 9.7 km/h 27.4 km/h 91 % 1.8 mm
11:17 10.4 °C 8.8 °C 1004.6 hPa WSW 11.3 km/h 30.6 km/h 90 % 1.8 mm
11:22 10.5 °C 8.9 °C 1005.0 hPa SSW 9.7 km/h 30.6 km/h 90 % 1.5 mm
11:27 10.7 °C 8.8 °C 1005.3 hPa WSW 8.0 km/h 27.4 km/h 88 % 1.5 mm
11:32 10.8 °C 8.7 °C 1005.3 hPa SSW 14.5 km/h 30.6 km/h 87 % 1.0 mm
11:37 11.0 °C 8.9 °C 1005.3 hPa SW 9.7 km/h 30.6 km/h 87 % 0.5 mm
11:42 11.0 °C 8.7 °C 1005.3 hPa WSW 17.7 km/h 29.0 km/h 86 % 0.3 mm
11:47 11.0 °C 8.9 °C 1005.3 hPa SW 12.9 km/h 29.0 km/h 87 % 0.3 mm
11:52 11.1 °C 8.7 °C 1005.0 hPa South 4.8 km/h 29.0 km/h 85 % 0.3 mm
12:02 11.2 °C 8.8 °C 1005.0 hPa WSW 17.7 km/h 27.4 km/h 85 % 0.0 mm
12:12 11.2 °C 8.9 °C 1005.0 hPa SW 12.9 km/h 27.4 km/h 86 % 0.0 mm
12:17 11.1 °C 8.8 °C 1005.0 hPa SW 16.1 km/h 27.4 km/h 86 % 0.0 mm
12:22 10.8 °C 8.7 °C 1005.0 hPa WSW 4.8 km/h 27.4 km/h 87 % 0.0 mm
12:27 10.6 °C 8.9 °C 1005.0 hPa WSW 17.7 km/h 30.6 km/h 89 % 0.0 mm
12:32 10.6 °C 8.9 °C 1005.0 hPa WSW 12.9 km/h 30.6 km/h 89 % 0.0 mm
12:37 10.7 °C 8.8 °C 1005.0 hPa SW 17.7 km/h 30.6 km/h 88 % 0.0 mm
12:47 11.5 °C 9.2 °C 1005.0 hPa WSW 14.5 km/h 29.0 km/h 86 % 0.0 mm
12:52 11.6 °C 9.5 °C 1005.3 hPa WSW 16.1 km/h 29.0 km/h 87 % 0.0 mm
12:57 11.9 °C 9.5 °C 1005.0 hPa WSW 11.3 km/h 29.0 km/h 85 % 0.0 mm
13:02 12.0 °C 9.4 °C 1005.0 hPa SW 4.8 km/h 29.0 km/h 84 % 0.0 mm
13:07 10.8 °C 7.7 °C 1005.6 hPa SW 12.9 km/h 37.0 km/h 81 % 0.8 mm
13:12 9.7 °C 7.3 °C 1005.6 hPa SW 9.7 km/h 37.0 km/h 85 % 1.0 mm
13:17 9.2 °C 7.1 °C 1005.6 hPa South 20.9 km/h 37.0 km/h 87 % 1.3 mm
13:22 9.0 °C 7.1 °C 1005.6 hPa SW 16.1 km/h 27.4 km/h 88 % 1.5 mm
13:27 9.0 °C 7.3 °C 1005.6 hPa WSW 12.9 km/h 25.7 km/h 89 % 1.5 mm
13:32 9.1 °C 7.4 °C 1005.6 hPa SW 9.7 km/h 25.7 km/h 89 % 1.5 mm
13:37 9.3 °C 7.6 °C 1005.6 hPa ESE 3.2 km/h 25.7 km/h 89 % 1.5 mm
13:42 9.4 °C 7.7 °C 1005.6 hPa WSW 8.0 km/h 25.7 km/h 89 % 1.5 mm
13:47 9.3 °C 7.6 °C 1006.0 hPa SW 8.0 km/h 17.7 km/h 89 % 1.5 mm
13:52 9.4 °C 7.8 °C 1006.0 hPa WSW 9.7 km/h 17.7 km/h 90 % 1.5 mm
13:57 9.6 °C 8.0 °C 1006.0 hPa East 6.4 km/h 17.7 km/h 90 % 1.5 mm
14:02 9.4 °C 7.7 °C 1006.0 hPa SW 8.0 km/h 19.3 km/h 89 % 1.5 mm
14:07 9.3 °C 7.7 °C 1006.3 hPa South 9.7 km/h 19.3 km/h 90 % 0.5 mm
14:12 9.3 °C 7.9 °C 1006.3 hPa ESE 4.8 km/h 16.1 km/h 91 % 0.5 mm
14:17 9.2 °C 7.3 °C 1005.6 hPa ENE 14.5 km/h 25.7 km/h 88 % 0.8 mm
14:22 9.4 °C 7.3 °C 1005.6 hPa WSW 19.3 km/h 33.8 km/h 87 % 0.5 mm
14:32 10.1 °C 7.9 °C 1005.6 hPa SW 9.7 km/h 33.8 km/h 86 % 0.8 mm
14:37 10.3 °C 7.7 °C 1006.0 hPa SW 12.9 km/h 29.0 km/h 84 % 0.8 mm
14:42 10.3 °C 7.9 °C 1006.0 hPa West 9.7 km/h 29.0 km/h 85 % 0.8 mm
14:47 10.1 °C 7.7 °C 1006.0 hPa WSW 24.1 km/h 29.0 km/h 85 % 0.8 mm
14:52 9.9 °C 7.7 °C 1006.0 hPa SSW 8.0 km/h 24.1 km/h 86 % 0.8 mm
14:57 9.8 °C 7.9 °C 1006.3 hPa WSW 3.2 km/h 24.1 km/h 88 % 0.8 mm
15:02 9.7 °C 8.0 °C 1006.0 hPa SW 8.0 km/h 24.1 km/h 89 % 1.0 mm
15:07 9.6 °C 8.0 °C 1006.0 hPa SW 4.8 km/h 19.3 km/h 90 % 1.0 mm
15:12 9.6 °C 8.2 °C 1006.3 hPa WSW 6.4 km/h 19.3 km/h 91 % 0.8 mm
15:17 9.7 °C 8.3 °C 1006.0 hPa WSW 17.7 km/h 19.3 km/h 91 % 0.5 mm
15:22 9.8 °C 8.4 °C 1006.3 hPa WSW 12.9 km/h 20.9 km/h 91 % 0.5 mm
15:27 9.9 °C 8.3 °C 1006.3 hPa WSW 6.4 km/h 20.9 km/h 90 % 0.5 mm
15:32 10.0 °C 8.1 °C 1006.3 hPa WSW 16.1 km/h 20.9 km/h 88 % 0.5 mm
15:37 10.1 °C 8.2 °C 1006.3 hPa SW 8.0 km/h 29.0 km/h 88 % 0.5 mm
15:42 10.2 °C 8.1 °C 1006.7 hPa WSW 6.4 km/h 29.0 km/h 87 % 0.5 mm
15:47 10.1 °C 7.9 °C 1007.0 hPa SW 9.7 km/h 30.6 km/h 86 % 0.5 mm
15:52 10.0 °C 7.6 °C 1007.0 hPa SSW 12.9 km/h 30.6 km/h 85 % 0.5 mm
15:57 10.1 °C 7.9 °C 1007.0 hPa SW 8.0 km/h 30.6 km/h 86 % 0.5 mm
16:02 10.0 °C 7.8 °C 1007.0 hPa WSW 9.7 km/h 20.9 km/h 86 % 0.3 mm
16:12 10.1 °C 7.0 °C 1007.3 hPa WSW 11.3 km/h 27.4 km/h 81 % 0.0 mm
16:17 10.1 °C 6.6 °C 1007.3 hPa South 9.7 km/h 27.4 km/h 79 % 0.0 mm
16:22 10.1 °C 6.6 °C 1007.3 hPa SSE 4.8 km/h 27.4 km/h 79 % 0.3 mm
16:27 10.1 °C 6.6 °C 1007.3 hPa South 9.7 km/h 27.4 km/h 79 % 0.3 mm
16:32 10.1 °C 6.8 °C 1007.3 hPa South 12.9 km/h 27.4 km/h 80 % 0.3 mm
16:37 10.1 °C 6.8 °C 1007.3 hPa SW 3.2 km/h 27.4 km/h 80 % 0.3 mm
16:42 9.8 °C 6.9 °C 1007.3 hPa SSW 14.5 km/h 24.1 km/h 82 % 0.3 mm
16:47 9.6 °C 7.0 °C 1007.7 hPa West 3.2 km/h 24.1 km/h 84 % 0.3 mm
16:57 9.0 °C 7.1 °C 1008.0 hPa SSW 3.2 km/h 17.7 km/h 88 % 0.5 mm
17:02 8.8 °C 7.2 °C 1007.7 hPa SW 4.8 km/h 17.7 km/h 90 % 0.8 mm
17:07 8.7 °C 7.2 °C 1007.7 hPa SW 11.3 km/h 20.9 km/h 90 % 1.0 mm
17:12 8.7 °C 7.3 °C 1007.7 hPa WSW 6.4 km/h 20.9 km/h 91 % 1.0 mm
17:17 8.8 °C 7.2 °C 1008.0 hPa SW 8.0 km/h 20.9 km/h 90 % 1.0 mm
17:22 8.8 °C 7.4 °C 1008.0 hPa WSW 11.3 km/h 20.9 km/h 91 % 0.8 mm
17:27 8.9 °C 7.3 °C 1008.0 hPa SSW 4.8 km/h 20.9 km/h 90 % 0.8 mm
17:32 9.0 °C 7.4 °C 1008.0 hPa SW 9.7 km/h 19.3 km/h 90 % 0.8 mm
17:37 9.1 °C 7.4 °C 1008.4 hPa SW 11.3 km/h 20.9 km/h 89 % 0.8 mm
17:42 9.1 °C 7.2 °C 1008.4 hPa ENE 11.3 km/h 22.5 km/h 88 % 0.8 mm
17:47 9.2 °C 7.3 °C 1008.7 hPa WSW 6.4 km/h 22.5 km/h 88 % 0.5 mm
17:52 9.2 °C 7.1 °C 1008.7 hPa SW 6.4 km/h 22.5 km/h 87 % 0.5 mm
17:57 9.2 °C 7.1 °C 1008.7 hPa SSW 8.0 km/h 19.3 km/h 87 % 0.5 mm
18:02 9.2 °C 7.1 °C 1009.0 hPa SW 11.3 km/h 22.5 km/h 87 % 0.0 mm
18:07 9.2 °C 7.1 °C 1009.0 hPa WSW 4.8 km/h 22.5 km/h 87 % 0.0 mm
18:17 9.2 °C 7.0 °C 1009.0 hPa SW 6.4 km/h 17.7 km/h 86 % 0.0 mm
18:22 9.1 °C 6.9 °C 1009.0 hPa South 9.7 km/h 17.7 km/h 86 % 0.0 mm
18:27 9.1 °C 6.9 °C 1009.0 hPa SW 6.4 km/h 16.1 km/h 86 % 0.0 mm
18:32 9.2 °C 7.0 °C 1009.0 hPa SW 6.4 km/h 16.1 km/h 86 % 0.0 mm
18:42 9.2 °C 7.0 °C 1009.4 hPa SSW 11.3 km/h 22.5 km/h 86 % 0.0 mm
18:47 9.2 °C 6.8 °C 1009.4 hPa SW 6.4 km/h 25.7 km/h 85 % 0.0 mm
18:52 9.2 °C 6.6 °C 1009.4 hPa SW 9.7 km/h 25.7 km/h 84 % 0.0 mm
18:57 9.3 °C 6.6 °C 1009.4 hPa WSW 8.0 km/h 20.9 km/h 83 % 0.0 mm
19:02 9.3 °C 6.6 °C 1009.4 hPa SW 16.1 km/h 19.3 km/h 83 % 0.0 mm
19:07 9.3 °C 6.7 °C 1009.4 hPa WSW 22.5 km/h 22.5 km/h 84 % 0.0 mm
19:12 9.4 °C 6.8 °C 1009.4 hPa SW 9.7 km/h 22.5 km/h 84 % 0.0 mm
19:17 9.3 °C 6.7 °C 1009.4 hPa SSW 8.0 km/h 22.5 km/h 84 % 0.0 mm
19:27 9.3 °C 6.7 °C 1009.4 hPa SSE 12.9 km/h 19.3 km/h 84 % 0.0 mm
19:32 9.2 °C 6.6 °C 1009.4 hPa WSW 8.0 km/h 22.5 km/h 84 % 0.0 mm
19:37 9.1 °C 6.5 °C 1009.4 hPa SW 8.0 km/h 22.5 km/h 84 % 0.0 mm
19:42 9.1 °C 6.5 °C 1009.4 hPa WSW 8.0 km/h 22.5 km/h 84 % 0.0 mm
19:47 8.9 °C 6.3 °C 1009.4 hPa SW 8.0 km/h 20.9 km/h 84 % 0.0 mm
19:52 8.8 °C 6.1 °C 1009.7 hPa SW 9.7 km/h 24.1 km/h 83 % 0.0 mm
19:57 8.7 °C 6.1 °C 1009.7 hPa WSW 9.7 km/h 24.1 km/h 84 % 0.0 mm
20:02 8.7 °C 6.1 °C 1010.0 hPa SW 9.7 km/h 25.7 km/h 84 % 0.0 mm
20:17 8.6 °C 6.2 °C 1010.0 hPa SW 8.0 km/h 27.4 km/h 85 % 0.0 mm
20:27 8.4 °C 6.0 °C 1010.0 hPa WSW 9.7 km/h 20.9 km/h 85 % 0.0 mm
20:37 8.4 °C 6.0 °C 1010.0 hPa SW 8.0 km/h 22.5 km/h 85 % 0.0 mm
20:42 8.3 °C 5.9 °C 1010.0 hPa SW 9.7 km/h 22.5 km/h 85 % 0.0 mm
20:47 8.3 °C 5.9 °C 1010.0 hPa ESE 3.2 km/h 22.5 km/h 85 % 0.0 mm
20:57 8.2 °C 5.8 °C 1010.0 hPa SW 20.9 km/h 24.1 km/h 85 % 0.0 mm
21:02 8.2 °C 5.8 °C 1010.0 hPa WSW 4.8 km/h 24.1 km/h 85 % 0.0 mm
21:07 8.1 °C 5.9 °C 1010.4 hPa WSW 4.8 km/h 24.1 km/h 86 % 0.0 mm
21:12 8.1 °C 5.9 °C 1010.4 hPa SSW 6.4 km/h 20.9 km/h 86 % 0.0 mm
21:17 8.0 °C 5.8 °C 1010.4 hPa Calm   12.9 km/h 86 % 0.0 mm
21:27 8.1 °C 6.1 °C 1010.7 hPa SW 6.4 km/h 16.1 km/h 87 % 0.0 mm
21:37 8.1 °C 6.2 °C 1010.7 hPa WSW 4.8 km/h 16.1 km/h 88 % 0.0 mm
21:42 8.1 °C 6.4 °C 1010.7 hPa SW 6.4 km/h 16.1 km/h 89 % 0.0 mm
21:52 8.0 °C 6.6 °C 1010.7 hPa SW 4.8 km/h 12.9 km/h 91 % 0.0 mm
22:02 8.1 °C 6.7 °C 1010.7 hPa SSW 3.2 km/h 16.1 km/h 91 % 0.0 mm
22:07 8.2 °C 6.7 °C 1010.7 hPa SW 3.2 km/h 19.3 km/h 90 % 0.0 mm
22:12 8.2 °C 6.7 °C 1010.7 hPa SW 6.4 km/h 19.3 km/h 90 % 0.3 mm
22:27 8.5 °C 6.8 °C 1010.4 hPa SW 12.9 km/h 16.1 km/h 89 % 0.3 mm
22:32 8.6 °C 7.1 °C 1010.4 hPa South 8.0 km/h 19.3 km/h 90 % 0.3 mm
22:37 8.5 °C 7.0 °C 1010.0 hPa SW 4.8 km/h 19.3 km/h 90 % 0.3 mm
22:42 8.4 °C 7.0 °C 1010.4 hPa SW 4.8 km/h 19.3 km/h 91 % 0.3 mm
22:47 8.3 °C 6.9 °C 1010.0 hPa South 11.3 km/h 19.3 km/h 91 % 0.3 mm
22:52 8.2 °C 6.8 °C 1010.0 hPa SSE 4.8 km/h 19.3 km/h 91 % 0.3 mm
22:57 8.1 °C 6.7 °C 1010.0 hPa SW 6.4 km/h 19.3 km/h 91 % 0.3 mm
23:02 8.1 °C 6.7 °C 1010.0 hPa West 3.2 km/h 19.3 km/h 91 % 0.3 mm
23:07 8.0 °C 6.8 °C 1010.0 hPa SW 12.9 km/h 19.3 km/h 92 % 0.0 mm
23:12 8.0 °C 6.8 °C 1010.0 hPa WSW 6.4 km/h 16.1 km/h 92 % 0.0 mm
23:17 8.0 °C 6.9 °C 1010.0 hPa SW 4.8 km/h 20.9 km/h 93 % 0.0 mm
23:22 8.1 °C 6.9 °C 1010.0 hPa SW 8.0 km/h 20.9 km/h 92 % 0.0 mm
23:32 8.1 °C 6.9 °C 1010.0 hPa SW 9.7 km/h 16.1 km/h 92 % 0.0 mm
23:37 8.1 °C 6.7 °C 1010.0 hPa West 1.6 km/h 16.1 km/h 91 % 0.0 mm
23:42 8.2 °C 6.8 °C 1009.7 hPa West 4.8 km/h 16.1 km/h 91 % 0.0 mm
23:47 8.2 °C 6.8 °C 1010.0 hPa WSW 6.4 km/h 20.9 km/h 91 % 0.0 mm
23:52 8.1 °C 6.7 °C 1009.7 hPa SW 3.2 km/h 20.9 km/h 91 % 0.0 mm
23:57 8.0 °C 6.6 °C 1009.7 hPa SW 4.8 km/h 20.9 km/h 91 % 0.0 mm
Meteo18
Compliments of Weather Underground - 4 mb

Script developed by  Jim McMurry - jmcmurry@mwt.net Adapted for the template by  Wim van der Kuil - Leuven-Template.eu

You find our weather info also at:

European Weather Network

Weather Underground

Equipment we use:

Weather-station
Davis Vue

Weather-program
Meteohub

Weather-server
Raspberry PI 2 B+

Provider
1 and 1

Davis Vue

Meteohub

Raspberry PI 2 B+

1 and 1